createdAt,value
2022-09-25T00:00:27.963Z,13.08
2022-09-25T00:02:57.722Z,12.91
2022-09-25T00:05:27.242Z,13.00
2022-09-25T00:07:56.816Z,12.90
2022-09-25T00:10:27.896Z,12.96
2022-09-25T00:12:57.690Z,12.80
2022-09-25T00:15:27.572Z,12.74
2022-09-25T00:17:57.007Z,12.85
2022-09-25T00:20:26.713Z,12.69
2022-09-25T00:22:56.803Z,12.80
2022-09-25T00:25:28.185Z,12.65
2022-09-25T00:27:58.203Z,12.72
2022-09-25T00:30:28.018Z,12.72
2022-09-25T00:32:58.205Z,12.70
2022-09-25T00:35:27.945Z,12.77
2022-09-25T00:37:57.960Z,12.72
2022-09-25T00:40:27.466Z,12.80
2022-09-25T00:42:57.507Z,12.68
2022-09-25T00:45:27.315Z,12.68
2022-09-25T00:48:03.762Z,12.72
2022-09-25T00:50:36.556Z,12.60
2022-09-25T00:53:09.637Z,12.57
2022-09-25T00:55:41.664Z,12.67
2022-09-25T00:58:14.991Z,12.59
2022-09-25T01:00:45.577Z,12.62
2022-09-25T01:03:17.432Z,12.56
2022-09-25T01:05:49.221Z,12.58
2022-09-25T01:08:22.054Z,12.62
2022-09-25T01:10:52.047Z,12.41
2022-09-25T01:13:22.211Z,12.41
2022-09-25T01:16:03.796Z,12.50
2022-09-25T01:18:56.726Z,12.31
2022-09-25T01:21:47.150Z,12.25
2022-09-25T01:24:26.257Z,12.10
2022-09-25T01:27:15.181Z,12.03
2022-09-25T01:29:48.223Z,12.15
2022-09-25T01:32:21.006Z,12.17
2022-09-25T01:34:53.512Z,11.98
2022-09-25T01:37:35.073Z,12.04
2022-09-25T01:40:08.375Z,12.05
2022-09-25T01:42:48.466Z,11.97
2022-09-25T01:45:24.027Z,11.87
2022-09-25T01:47:56.327Z,11.87
2022-09-25T01:50:28.804Z,11.84
2022-09-25T01:53:01.340Z,11.72
2022-09-25T01:55:36.696Z,11.73
2022-09-25T01:58:14.683Z,11.69
2022-09-25T02:00:49.136Z,11.69
2022-09-25T02:03:25.831Z,11.72
2022-09-25T02:05:58.489Z,11.72
2022-09-25T02:08:33.497Z,11.73
2022-09-25T02:11:06.707Z,11.69
2022-09-25T02:13:39.437Z,11.47
2022-09-25T02:16:12.317Z,11.53
2022-09-25T02:19:00.246Z,11.43
2022-09-25T02:21:58.844Z,11.43
2022-09-25T02:24:47.174Z,11.28
2022-09-25T02:27:20.742Z,11.41
2022-09-25T02:29:52.217Z,11.25
2022-09-25T02:32:24.852Z,11.19
2022-09-25T02:34:54.639Z,11.13
2022-09-25T02:37:24.436Z,11.08
2022-09-25T02:39:57.961Z,11.18
2022-09-25T02:42:33.627Z,10.97
2022-09-25T02:45:08.628Z,11.04
2022-09-25T02:47:56.586Z,10.96
2022-09-25T02:50:40.609Z,10.93
2022-09-25T02:53:22.446Z,10.89
2022-09-25T02:58:55.781Z,10.94
2022-09-25T03:01:29.153Z,10.87
2022-09-25T03:04:01.615Z,10.84
2022-09-25T03:06:32.327Z,10.78
2022-09-25T03:09:03.195Z,10.75
2022-09-25T03:11:32.946Z,10.92
2022-09-25T03:14:05.823Z,10.77
2022-09-25T03:16:50.297Z,10.61
2022-09-25T03:19:20.520Z,10.65
2022-09-25T03:21:51.052Z,10.61
2022-09-25T03:24:21.910Z,10.59
2022-09-25T03:26:51.733Z,10.64
2022-09-25T03:29:22.609Z,10.64
2022-09-25T03:31:52.358Z,10.51
2022-09-25T03:34:22.982Z,10.47
2022-09-25T03:36:52.705Z,10.53
2022-09-25T03:39:22.808Z,10.39
2022-09-25T03:41:52.551Z,10.48
2022-09-25T03:44:22.588Z,10.45
2022-09-25T03:46:52.175Z,10.35
2022-09-25T03:49:22.564Z,10.35
2022-09-25T03:51:52.314Z,10.25
2022-09-25T03:54:22.343Z,10.16
2022-09-25T03:56:52.071Z,10.21
2022-09-25T03:59:22.174Z,10.12
2022-09-25T04:01:51.984Z,10.00
2022-09-25T04:04:22.557Z,10.14
2022-09-25T04:06:52.584Z,10.11
2022-09-25T04:09:23.286Z,9.98
2022-09-25T04:11:54.659Z,10.08
2022-09-25T04:14:24.671Z,9.99
2022-09-25T04:16:54.440Z,9.92
2022-09-25T04:19:24.518Z,9.98
2022-09-25T04:21:54.290Z,9.99
2022-09-25T04:24:41.818Z,9.93
2022-09-25T04:27:10.596Z,9.98
2022-09-25T04:29:39.937Z,9.81
2022-09-25T04:32:27.457Z,9.78
2022-09-25T04:34:57.760Z,9.85
2022-09-25T04:37:28.063Z,9.74
2022-09-25T04:39:58.431Z,9.74
2022-09-25T04:42:28.093Z,9.72
2022-09-25T04:44:58.842Z,9.86
2022-09-25T04:47:31.376Z,9.74
2022-09-25T04:50:01.135Z,9.68
2022-09-25T04:52:31.692Z,9.66
2022-09-25T04:55:01.727Z,9.65
2022-09-25T04:57:56.634Z,9.52
2022-09-25T05:00:02.970Z,9.60
2022-09-25T05:02:32.669Z,9.58
2022-09-25T05:05:02.628Z,9.63
2022-09-25T05:07:32.377Z,9.52
2022-09-25T05:10:02.101Z,9.46
2022-09-25T05:12:32.075Z,9.49
2022-09-25T05:15:02.344Z,9.62
2022-09-25T05:17:32.064Z,9.58
2022-09-25T05:20:02.676Z,9.48
2022-09-25T05:22:32.403Z,9.43
2022-09-25T05:25:02.144Z,9.37
2022-09-25T05:27:34.241Z,9.45
2022-09-25T05:30:03.755Z,9.54
2022-09-25T05:32:33.280Z,9.46
2022-09-25T05:35:03.680Z,9.43
2022-09-25T05:37:34.951Z,9.37
2022-09-25T05:40:04.445Z,9.42
2022-09-25T05:42:34.951Z,9.32
2022-09-25T05:45:07.580Z,9.33
2022-09-25T05:47:36.376Z,9.38
2022-09-25T05:50:09.230Z,9.46
2022-09-25T05:52:38.938Z,9.44
2022-09-25T05:55:10.740Z,9.53
2022-09-25T05:57:40.489Z,9.38
2022-09-25T06:00:11.484Z,9.38
2022-09-25T06:02:44.273Z,9.50
2022-09-25T06:05:14.637Z,9.55
2022-09-25T06:07:44.376Z,9.43
2022-09-25T06:13:05.787Z,9.46
2022-09-25T06:15:41.995Z,9.47
2022-09-25T06:18:13.343Z,9.51
2022-09-25T06:20:44.028Z,9.57
2022-09-25T06:23:14.138Z,9.65
2022-09-25T06:25:44.257Z,9.64
2022-09-25T06:28:15.355Z,9.80
2022-09-25T06:30:45.480Z,9.88
2022-09-25T06:33:15.773Z,10.01
2022-09-25T06:35:47.823Z,10.16
2022-09-25T06:38:18.037Z,10.32
2022-09-25T06:40:47.990Z,10.41
2022-09-25T06:43:18.057Z,10.82
2022-09-25T06:45:49.184Z,10.82
2022-09-25T06:48:20.781Z,10.96
2022-09-25T06:50:56.186Z,11.31
2022-09-25T06:53:26.804Z,11.31
2022-09-25T06:55:59.778Z,11.65
2022-09-25T06:58:30.783Z,11.87
2022-09-25T07:01:00.698Z,11.89
2022-09-25T07:03:45.256Z,12.19
2022-09-25T07:06:21.934Z,12.22
2022-09-25T07:08:52.305Z,12.36
2022-09-25T07:11:24.900Z,12.53
2022-09-25T07:13:55.156Z,12.71
2022-09-25T07:16:30.501Z,12.93
2022-09-25T07:19:01.055Z,12.92
2022-09-25T07:21:32.084Z,12.95
2022-09-25T07:24:01.926Z,13.17
2022-09-25T07:26:33.672Z,13.34
2022-09-25T07:29:07.586Z,13.19
2022-09-25T07:31:39.175Z,13.68
2022-09-25T07:34:12.612Z,13.68
2022-09-25T07:36:42.950Z,13.89
2022-09-25T07:39:18.166Z,13.98
2022-09-25T07:41:44.447Z,14.04
2022-09-25T07:44:33.631Z,14.00
2022-09-25T07:46:46.104Z,14.20
2022-09-25T07:49:16.187Z,14.37
2022-09-25T07:51:45.927Z,14.52
2022-09-25T07:54:15.838Z,14.45
2022-09-25T07:56:45.566Z,14.60
2022-09-25T07:59:15.619Z,14.61
2022-09-25T08:01:48.564Z,14.38
2022-09-25T08:04:16.757Z,14.85
2022-09-25T08:06:46.476Z,15.17
2022-09-25T08:09:16.301Z,15.22
2022-09-25T08:11:46.337Z,15.52
2022-09-25T08:14:16.337Z,15.58
2022-09-25T08:16:47.457Z,15.51
2022-09-25T08:19:18.365Z,15.42
2022-09-25T08:21:47.853Z,15.73
2022-09-25T08:24:17.636Z,15.57
2022-09-25T08:26:48.202Z,15.43
2022-09-25T08:29:18.435Z,15.48
2022-09-25T08:31:48.347Z,15.46
2022-09-25T08:36:51.000Z,15.23
2022-09-25T08:39:21.012Z,15.34
2022-09-25T08:41:56.228Z,15.31
2022-09-25T08:44:37.748Z,15.68
2022-09-25T08:47:30.865Z,15.11
2022-09-25T08:50:15.755Z,15.59
2022-09-25T08:52:48.859Z,15.93
2022-09-25T08:55:28.661Z,15.93
2022-09-25T08:57:58.455Z,15.60
2022-09-25T09:00:29.846Z,15.78
2022-09-25T09:03:00.370Z,15.74
2022-09-25T09:05:39.201Z,15.93
2022-09-25T09:08:14.956Z,15.99
2022-09-25T09:10:59.592Z,15.97
2022-09-25T09:13:32.373Z,16.34
2022-09-25T09:16:10.728Z,16.47
2022-09-25T09:18:43.258Z,16.86
2022-09-25T09:21:22.582Z,16.95
2022-09-25T09:24:09.958Z,17.08
2022-09-25T09:27:04.030Z,17.54
2022-09-25T09:29:54.325Z,17.85
2022-09-25T09:32:32.741Z,17.83
2022-09-25T09:35:20.630Z,17.96
2022-09-25T09:37:59.092Z,18.03
2022-09-25T09:40:51.619Z,17.99
2022-09-25T09:43:38.521Z,18.11
2022-09-25T09:46:35.570Z,17.91
2022-09-25T09:49:24.752Z,17.95
2022-09-25T09:52:06.216Z,18.49
2022-09-25T09:54:42.811Z,18.64
2022-09-25T09:57:15.800Z,18.98
2022-09-25T09:59:48.590Z,19.08
2022-09-25T10:02:30.106Z,18.77
2022-09-25T10:05:03.768Z,18.85
2022-09-25T10:07:36.614Z,19.18
2022-09-25T10:10:15.779Z,19.57
2022-09-25T10:12:53.688Z,19.75
2022-09-25T10:15:42.647Z,19.82
2022-09-25T10:18:14.084Z,19.78
2022-09-25T10:20:49.414Z,19.78
2022-09-25T10:23:40.303Z,19.38
2022-09-25T10:26:29.419Z,19.13
2022-09-25T10:29:02.241Z,19.13
2022-09-25T10:31:37.640Z,19.27
2022-09-25T10:34:20.111Z,19.79
2022-09-25T10:36:54.672Z,20.00
2022-09-25T10:39:45.275Z,20.29
2022-09-25T10:42:11.845Z,20.07
2022-09-25T10:44:41.649Z,20.07
2022-09-25T10:47:40.860Z,20.22
2022-09-25T10:50:26.940Z,19.71
2022-09-25T10:53:02.620Z,19.71
2022-09-25T10:55:41.630Z,20.28
2022-09-25T10:58:20.659Z,20.42
2022-09-25T11:00:56.572Z,20.22
2022-09-25T11:03:35.566Z,20.22
2022-09-25T11:06:09.590Z,20.24
2022-09-25T11:08:41.253Z,20.38
2022-09-25T11:11:12.132Z,20.78
2022-09-25T11:13:50.545Z,20.83
2022-09-25T11:16:20.276Z,20.52
2022-09-25T11:18:52.232Z,20.26
2022-09-25T11:21:30.572Z,20.03
2022-09-25T11:24:19.744Z,19.87
2022-09-25T11:26:55.457Z,20.12
2022-09-25T11:29:45.419Z,19.93
2022-09-25T11:32:23.495Z,19.77
2022-09-25T11:35:20.260Z,19.40
2022-09-25T11:37:55.660Z,19.92
2022-09-25T11:40:57.998Z,19.66
2022-09-25T11:43:52.087Z,19.90
2022-09-25T11:46:35.223Z,20.57
2022-09-25T11:49:19.773Z,20.28
2022-09-25T11:52:08.954Z,20.28
2022-09-25T11:54:58.151Z,20.30
2022-09-25T11:57:35.020Z,20.73
2022-09-25T12:00:22.301Z,20.47
2022-09-25T12:03:13.201Z,20.63
2022-09-25T12:06:08.189Z,20.94
2022-09-25T12:08:59.891Z,20.94
2022-09-25T12:11:54.567Z,21.38
2022-09-25T12:14:42.690Z,21.63
2022-09-25T12:17:38.894Z,21.33
2022-09-25T12:20:40.232Z,21.33
2022-09-25T12:23:27.658Z,21.40
2022-09-25T12:26:33.363Z,21.76
2022-09-25T12:29:21.917Z,21.56
2022-09-25T12:31:58.024Z,21.33
2022-09-25T12:34:56.585Z,21.67
2022-09-25T12:37:47.371Z,21.15
2022-09-25T12:40:32.278Z,21.38
2022-09-25T12:43:07.879Z,21.54
2022-09-25T12:45:51.821Z,21.29
2022-09-25T12:48:27.508Z,21.36
2022-09-25T12:51:06.889Z,21.59
2022-09-25T12:53:48.121Z,21.58
2022-09-25T12:56:24.155Z,21.96
2022-09-25T12:59:11.760Z,22.33
2022-09-25T13:01:57.340Z,22.07
2022-09-25T13:07:29.935Z,22.20
2022-09-25T13:10:00.767Z,22.46
2022-09-25T13:12:36.084Z,22.97
2022-09-25T13:15:23.493Z,22.42
2022-09-25T13:17:53.037Z,22.30
2022-09-25T13:20:31.787Z,22.06
2022-09-25T13:23:04.542Z,22.17
2022-09-25T13:25:50.864Z,22.06
2022-09-25T13:28:23.506Z,22.85
2022-09-25T13:31:11.270Z,22.49
2022-09-25T13:33:49.910Z,22.53
2022-09-25T13:36:28.264Z,22.63
2022-09-25T13:39:20.764Z,22.47
2022-09-25T13:42:02.480Z,22.55
2022-09-25T13:44:46.688Z,22.13
2022-09-25T13:47:25.020Z,21.52
2022-09-25T13:49:57.793Z,21.52
2022-09-25T13:52:32.937Z,21.74
2022-09-25T13:55:22.055Z,21.49
2022-09-25T13:58:01.424Z,22.30
2022-09-25T14:00:46.227Z,22.65
2022-09-25T14:03:37.025Z,22.74
2022-09-25T14:06:13.688Z,22.58
2022-09-25T14:08:46.362Z,22.53
2022-09-25T14:11:19.143Z,22.34
2022-09-25T14:13:52.440Z,22.10
2022-09-25T14:16:27.758Z,21.43
2022-09-25T14:18:59.764Z,20.38
2022-09-25T14:21:31.492Z,20.89
2022-09-25T14:24:21.297Z,20.89
2022-09-25T14:26:52.028Z,20.65
2022-09-25T14:29:27.510Z,20.54
2022-09-25T14:32:05.719Z,20.30
2022-09-25T14:34:56.047Z,20.10
2022-09-25T14:37:55.650Z,20.19
2022-09-25T14:40:30.188Z,20.14
2022-09-25T14:46:17.359Z,19.55
2022-09-25T14:48:52.507Z,19.42
2022-09-25T14:51:31.150Z,19.53
2022-09-25T14:54:04.380Z,19.44
2022-09-25T14:56:37.381Z,19.74
2022-09-25T14:59:13.093Z,19.62
2022-09-25T15:01:48.114Z,19.36
2022-09-25T15:04:32.661Z,19.17
2022-09-25T15:07:10.858Z,19.52
2022-09-25T15:09:44.465Z,19.22
2022-09-25T15:12:34.014Z,19.67
2022-09-25T15:15:09.850Z,19.77
2022-09-25T15:17:49.342Z,19.30
2022-09-25T15:20:24.159Z,19.26
2022-09-25T15:23:03.340Z,19.50
2022-09-25T15:25:41.883Z,19.43
2022-09-25T15:28:15.034Z,19.32
2022-09-25T15:30:47.201Z,19.10
2022-09-25T15:33:26.470Z,19.01
2022-09-25T15:36:04.761Z,19.30
2022-09-25T15:38:37.571Z,19.09
2022-09-25T15:41:12.602Z,18.89
2022-09-25T15:43:43.142Z,18.93
2022-09-25T15:46:30.814Z,18.56
2022-09-25T15:49:01.941Z,18.56
2022-09-25T15:51:33.771Z,18.89
2022-09-25T15:54:09.287Z,18.56
2022-09-25T15:56:47.806Z,18.74
2022-09-25T15:59:20.574Z,18.68
2022-09-25T16:02:08.354Z,18.72
2022-09-25T16:04:40.098Z,18.77
2022-09-25T16:07:34.199Z,18.73
2022-09-25T16:10:13.566Z,18.66
2022-09-25T16:12:49.055Z,18.51
2022-09-25T16:15:30.993Z,18.01
2022-09-25T16:18:05.915Z,17.83
2022-09-25T16:20:37.480Z,17.75
2022-09-25T16:23:09.852Z,17.75
2022-09-25T16:28:27.230Z,17.64
2022-09-25T16:31:05.077Z,17.70
2022-09-25T16:33:38.766Z,17.80
2022-09-25T16:36:17.512Z,17.69
2022-09-25T16:39:10.300Z,17.82
2022-09-25T16:41:43.076Z,17.63
2022-09-25T16:44:18.863Z,17.59
2022-09-25T16:46:59.904Z,17.58
2022-09-25T16:49:31.263Z,17.53
2022-09-25T16:52:03.071Z,17.34
2022-09-25T16:54:33.550Z,17.45
2022-09-25T16:57:04.047Z,17.20
2022-09-25T16:59:33.817Z,17.29
2022-09-25T17:02:06.690Z,17.12
2022-09-25T17:04:38.614Z,16.93
2022-09-25T17:07:10.182Z,16.84
2022-09-25T17:09:40.197Z,16.72
2022-09-25T17:12:14.113Z,16.72
2022-09-25T17:14:44.039Z,16.75
2022-09-25T17:17:16.806Z,16.59
2022-09-25T17:19:46.673Z,16.58
2022-09-25T17:22:16.465Z,16.43
2022-09-25T17:24:46.214Z,16.58
2022-09-25T17:27:17.067Z,16.60
2022-09-25T17:29:48.071Z,16.44
2022-09-25T17:32:17.861Z,16.53
2022-09-25T17:34:47.743Z,16.25
2022-09-25T17:37:17.535Z,16.22
2022-09-25T17:39:47.300Z,16.33
2022-09-25T17:42:17.287Z,16.18
2022-09-25T17:44:47.321Z,16.13
2022-09-25T17:47:17.042Z,16.11
2022-09-25T17:49:48.467Z,16.07
2022-09-25T17:52:20.257Z,16.06
2022-09-25T17:54:50.059Z,15.87
2022-09-25T17:57:19.807Z,15.79
2022-09-25T17:59:49.575Z,15.84
2022-09-25T18:02:19.475Z,15.80
2022-09-25T18:04:49.574Z,15.78
2022-09-25T18:07:20.307Z,15.70
2022-09-25T18:09:50.055Z,15.64
2022-09-25T18:12:19.507Z,15.42
2022-09-25T18:14:50.665Z,15.44
2022-09-25T18:17:20.159Z,15.36
2022-09-25T18:20:07.520Z,15.32
2022-09-25T18:22:38.111Z,15.23
2022-09-25T18:25:10.276Z,15.31
2022-09-25T18:27:41.731Z,15.18
2022-09-25T18:30:16.297Z,15.03
2022-09-25T18:32:46.017Z,15.13
2022-09-25T18:35:15.980Z,15.02
2022-09-25T18:37:46.143Z,14.85
2022-09-25T18:40:18.425Z,14.77
2022-09-25T18:42:48.385Z,14.91
2022-09-25T18:45:18.145Z,14.89
2022-09-25T18:47:47.947Z,14.75
2022-09-25T18:50:20.872Z,14.75
2022-09-25T18:52:51.003Z,14.52
2022-09-25T18:55:20.663Z,14.37
2022-09-25T18:57:50.385Z,14.43
2022-09-25T19:00:20.717Z,14.31
2022-09-25T19:02:50.724Z,14.28
2022-09-25T19:05:20.664Z,13.90
2022-09-25T19:07:50.155Z,14.11
2022-09-25T19:10:20.049Z,14.21
2022-09-25T19:12:49.801Z,14.18
2022-09-25T19:15:19.299Z,14.22
2022-09-25T19:17:49.038Z,14.07
2022-09-25T19:20:18.878Z,14.09
2022-09-25T19:22:49.029Z,14.03
2022-09-25T19:25:22.339Z,14.11
2022-09-25T19:27:50.443Z,14.10
2022-09-25T19:30:22.063Z,13.97
2022-09-25T19:32:51.861Z,14.01
2022-09-25T19:35:21.745Z,13.84
2022-09-25T19:37:51.820Z,13.70
2022-09-25T19:40:36.612Z,13.79
2022-09-25T19:43:08.287Z,13.84
2022-09-25T19:45:37.992Z,13.72
2022-09-25T19:48:09.349Z,13.57
2022-09-25T19:50:43.324Z,13.58
2022-09-25T19:53:14.213Z,13.53
2022-09-25T19:55:44.030Z,13.69
2022-09-25T19:58:13.527Z,13.70
2022-09-25T20:00:43.652Z,13.69
2022-09-25T20:03:13.471Z,13.70
2022-09-25T20:05:44.514Z,13.60
2022-09-25T20:08:14.253Z,13.56
2022-09-25T20:10:43.993Z,13.59
2022-09-25T20:13:13.717Z,13.49
2022-09-25T20:15:45.127Z,13.46
2022-09-25T20:18:16.792Z,13.51
2022-09-25T20:20:46.853Z,13.46
2022-09-25T20:23:16.660Z,13.49
2022-09-25T20:25:46.390Z,13.43
2022-09-25T20:28:16.196Z,13.51
2022-09-25T20:30:45.983Z,13.38
2022-09-25T20:33:15.741Z,13.44
2022-09-25T20:35:45.492Z,13.43
2022-09-25T20:38:14.936Z,13.47
2022-09-25T20:40:44.728Z,13.45
2022-09-25T20:43:14.474Z,13.41
2022-09-25T20:45:44.537Z,13.24
2022-09-25T20:48:15.819Z,13.27
2022-09-25T20:50:50.995Z,13.27
2022-09-25T20:53:20.726Z,13.18
2022-09-25T20:55:51.326Z,13.20
2022-09-25T20:58:20.912Z,13.16
2022-09-25T21:00:51.317Z,13.15
2022-09-25T21:03:21.052Z,13.17
2022-09-25T21:05:50.785Z,13.17
2022-09-25T21:08:20.308Z,13.05
2022-09-25T21:10:51.581Z,13.07
2022-09-25T21:13:21.523Z,12.97
2022-09-25T21:15:51.438Z,12.91
2022-09-25T21:18:21.459Z,12.90
2022-09-25T21:20:51.189Z,12.90
2022-09-25T21:23:21.108Z,12.94
2022-09-25T21:25:51.302Z,12.99
2022-09-25T21:28:22.033Z,13.01
2022-09-25T21:30:51.844Z,12.84
2022-09-25T21:33:21.789Z,12.97
2022-09-25T21:35:51.511Z,12.97
2022-09-25T21:38:20.949Z,13.09
2022-09-25T21:40:50.886Z,13.05
2022-09-25T21:43:20.603Z,12.98
2022-09-25T21:45:50.683Z,12.95
2022-09-25T21:48:20.590Z,12.86
2022-09-25T21:50:58.043Z,13.14
2022-09-25T21:53:28.243Z,13.21
2022-09-25T21:56:09.515Z,13.27
2022-09-25T21:58:39.600Z,13.19
2022-09-25T22:01:12.266Z,13.24
2022-09-25T22:03:44.053Z,13.15
2022-09-25T22:06:16.224Z,13.33
2022-09-25T22:08:48.400Z,13.32
2022-09-25T22:11:19.039Z,13.28
2022-09-25T22:13:50.313Z,13.21
2022-09-25T22:16:22.499Z,13.27
2022-09-25T22:18:55.348Z,13.30
2022-09-25T22:21:28.110Z,13.35
2022-09-25T22:23:58.371Z,13.34
2022-09-25T22:26:29.395Z,13.34
2022-09-25T22:28:59.134Z,13.50
2022-09-25T22:31:31.300Z,13.34
2022-09-25T22:34:03.723Z,13.23
2022-09-25T22:36:36.198Z,13.30
2022-09-25T22:39:07.057Z,13.20
2022-09-25T22:41:37.079Z,13.30
2022-09-25T22:44:08.432Z,13.15
2022-09-25T22:46:38.270Z,13.21
2022-09-25T22:49:08.087Z,13.38
2022-09-25T22:51:37.827Z,13.16
2022-09-25T22:54:10.600Z,13.31
2022-09-25T22:56:40.892Z,13.31
2022-09-25T22:59:14.450Z,13.37
2022-09-25T23:01:47.685Z,13.28
2022-09-25T23:04:22.873Z,13.20
2022-09-25T23:06:52.801Z,13.20
2022-09-25T23:09:25.838Z,13.20
2022-09-25T23:11:57.348Z,13.10
2022-09-25T23:14:29.673Z,13.10
2022-09-25T23:17:01.755Z,12.99
2022-09-25T23:19:31.796Z,12.89
2022-09-25T23:22:01.623Z,12.91
2022-09-25T23:24:31.481Z,12.93
2022-09-25T23:27:01.202Z,12.94
2022-09-25T23:29:30.949Z,12.70
2022-09-25T23:32:00.857Z,12.67
2022-09-25T23:34:30.693Z,12.64
2022-09-25T23:37:00.139Z,12.53
2022-09-25T23:39:30.097Z,12.41
2022-09-25T23:41:59.842Z,12.48
2022-09-25T23:44:29.638Z,12.40
2022-09-25T23:46:59.303Z,12.49
2022-09-25T23:49:29.042Z,12.56
2022-09-25T23:51:58.787Z,12.54
2022-09-25T23:54:28.517Z,12.52
2022-09-25T23:56:59.206Z,12.56
2022-09-25T23:59:28.925Z,12.49
